sensor_id;sensor_type;location;lat;lon;timestamp;pressure;altitude;pressure_sealevel;temperature;humidity
72285;BME280;60220;53.552;10.092;2023-04-09T00:02:08;102574.59;;;8.63;81.08
72285;BME280;60220;53.552;10.092;2023-04-09T00:04:35;102575.84;;;8.43;81.23
72285;BME280;60220;53.552;10.092;2023-04-09T00:07:01;102573.34;;;8.14;82.14
72285;BME280;60220;53.552;10.092;2023-04-09T00:09:28;102574.41;;;8.22;81.45
72285;BME280;60220;53.552;10.092;2023-04-09T00:11:56;102562.50;;;8.68;81.77
72285;BME280;60220;53.552;10.092;2023-04-09T00:14:23;102578.44;;;8.41;82.75
72285;BME280;60220;53.552;10.092;2023-04-09T00:16:50;102575.19;;;8.51;81.23
72285;BME280;60220;53.552;10.092;2023-04-09T00:19:16;102572.66;;;8.21;83.67
72285;BME280;60220;53.552;10.092;2023-04-09T00:21:43;102564.47;;;8.42;82.32
72285;BME280;60220;53.552;10.092;2023-04-09T00:24:10;102567.34;;;8.53;82.48
72285;BME280;60220;53.552;10.092;2023-04-09T00:26:37;102568.53;;;8.30;82.99
72285;BME280;60220;53.552;10.092;2023-04-09T00:29:05;102573.28;;;8.11;83.37
72285;BME280;60220;53.552;10.092;2023-04-09T00:31:32;102568.72;;;8.04;83.48
72285;BME280;60220;53.552;10.092;2023-04-09T00:33:58;102568.59;;;8.33;83.25
72285;BME280;60220;53.552;10.092;2023-04-09T00:36:25;102557.16;;;8.29;82.80
72285;BME280;60220;53.552;10.092;2023-04-09T00:38:52;102560.22;;;8.13;83.05
72285;BME280;60220;53.552;10.092;2023-04-09T00:41:18;102567.47;;;8.56;82.20
72285;BME280;60220;53.552;10.092;2023-04-09T00:43:45;102562.81;;;8.11;82.09
72285;BME280;60220;53.552;10.092;2023-04-09T00:46:16;102564.56;;;8.12;83.66
72285;BME280;60220;53.552;10.092;2023-04-09T00:48:43;102563.03;;;8.20;84.67
72285;BME280;60220;53.552;10.092;2023-04-09T00:51:12;102564.25;;;8.33;83.23
72285;BME280;60220;53.552;10.092;2023-04-09T00:53:39;102560.72;;;8.66;80.99
72285;BME280;60220;53.552;10.092;2023-04-09T00:56:06;102561.84;;;9.16;80.82
72285;BME280;60220;53.552;10.092;2023-04-09T00:58:33;102558.69;;;8.21;81.54
72285;BME280;60220;53.552;10.092;2023-04-09T01:01:00;102558.41;;;8.79;81.98
72285;BME280;60220;53.552;10.092;2023-04-09T01:03:28;102555.78;;;8.79;79.64
72285;BME280;60220;53.552;10.092;2023-04-09T01:06:02;102558.72;;;8.93;80.22
72285;BME280;60220;53.552;10.092;2023-04-09T01:08:39;102559.84;;;8.31;81.27
72285;BME280;60220;53.552;10.092;2023-04-09T01:11:13;102561.13;;;8.48;81.69
72285;BME280;60220;53.552;10.092;2023-04-09T01:13:45;102557.97;;;8.98;80.22
72285;BME280;60220;53.552;10.092;2023-04-09T01:16:15;102562.41;;;9.01;79.46
72285;BME280;60220;53.552;10.092;2023-04-09T01:18:49;102559.91;;;8.34;81.99
72285;BME280;60220;53.552;10.092;2023-04-09T01:21:19;102564.75;;;7.87;83.91
72285;BME280;60220;53.552;10.092;2023-04-09T01:23:55;102568.06;;;8.13;84.55
72285;BME280;60220;53.552;10.092;2023-04-09T01:26:34;102558.69;;;8.21;83.65
72285;BME280;60220;53.552;10.092;2023-04-09T01:29:07;102561.69;;;8.35;83.83
72285;BME280;60220;53.552;10.092;2023-04-09T01:31:38;102560.91;;;8.06;85.09
72285;BME280;60220;53.552;10.092;2023-04-09T01:34:08;102556.97;;;8.23;83.70
72285;BME280;60220;53.552;10.092;2023-04-09T01:36:37;102556.50;;;8.38;84.00
72285;BME280;60220;53.552;10.092;2023-04-09T01:39:05;102555.91;;;8.48;83.27
72285;BME280;60220;53.552;10.092;2023-04-09T01:41:34;102551.78;;;8.25;83.57
72285;BME280;60220;53.552;10.092;2023-04-09T01:44:02;102553.72;;;8.30;83.59
72285;BME280;60220;53.552;10.092;2023-04-09T01:46:31;102559.13;;;8.38;83.48
72285;BME280;60220;53.552;10.092;2023-04-09T01:48:59;102557.06;;;8.26;83.93
72285;BME280;60220;53.552;10.092;2023-04-09T01:51:27;102555.16;;;8.89;81.61
72285;BME280;60220;53.552;10.092;2023-04-09T01:53:57;102547.69;;;8.69;81.82
72285;BME280;60220;53.552;10.092;2023-04-09T01:56:27;102550.84;;;8.91;81.79
72285;BME280;60220;53.552;10.092;2023-04-09T01:58:55;102553.34;;;9.26;81.64
72285;BME280;60220;53.552;10.092;2023-04-09T02:01:26;102549.50;;;9.52;79.36
72285;BME280;60220;53.552;10.092;2023-04-09T02:04:02;102545.91;;;9.05;79.36
72285;BME280;60220;53.552;10.092;2023-04-09T02:06:35;102551.50;;;8.83;80.29
72285;BME280;60220;53.552;10.092;2023-04-09T02:09:06;102544.97;;;9.01;80.91
72285;BME280;60220;53.552;10.092;2023-04-09T02:11:36;102532.53;;;8.93;79.77
72285;BME280;60220;53.552;10.092;2023-04-09T02:14:03;102541.84;;;8.80;80.11
72285;BME280;60220;53.552;10.092;2023-04-09T02:16:33;102533.59;;;8.63;81.28
72285;BME280;60220;53.552;10.092;2023-04-09T02:19:01;102539.06;;;8.37;82.61
72285;BME280;60220;53.552;10.092;2023-04-09T02:21:28;102537.13;;;8.30;83.51
72285;BME280;60220;53.552;10.092;2023-04-09T02:23:56;102536.56;;;8.43;82.62
72285;BME280;60220;53.552;10.092;2023-04-09T02:26:22;102533.31;;;8.18;84.01
72285;BME280;60220;53.552;10.092;2023-04-09T02:28:49;102525.97;;;8.04;84.32
72285;BME280;60220;53.552;10.092;2023-04-09T02:31:18;102534.66;;;8.01;84.25
72285;BME280;60220;53.552;10.092;2023-04-09T02:33:45;102535.31;;;8.29;84.32
72285;BME280;60220;53.552;10.092;2023-04-09T02:36:13;102534.16;;;8.17;84.15
72285;BME280;60220;53.552;10.092;2023-04-09T02:38:40;102527.03;;;8.45;83.27
72285;BME280;60220;53.552;10.092;2023-04-09T02:41:07;102530.91;;;8.60;81.96
72285;BME280;60220;53.552;10.092;2023-04-09T02:43:34;102524.00;;;8.64;81.59
72285;BME280;60220;53.552;10.092;2023-04-09T02:46:00;102529.19;;;8.61;81.67
72285;BME280;60220;53.552;10.092;2023-04-09T02:48:27;102516.75;;;9.32;80.38
72285;BME280;60220;53.552;10.092;2023-04-09T02:50:57;102515.88;;;9.76;77.82
72285;BME280;60220;53.552;10.092;2023-04-09T02:53:25;102513.00;;;9.61;78.06
72285;BME280;60220;53.552;10.092;2023-04-09T02:55:54;102509.31;;;9.10;78.06
72285;BME280;60220;53.552;10.092;2023-04-09T02:58:20;102516.16;;;8.64;80.60
72285;BME280;60220;53.552;10.092;2023-04-09T03:00:47;102513.59;;;8.67;81.21
72285;BME280;60220;53.552;10.092;2023-04-09T03:03:14;102510.66;;;8.53;82.61
72285;BME280;60220;53.552;10.092;2023-04-09T03:05:40;102519.19;;;8.12;83.63
72285;BME280;60220;53.552;10.092;2023-04-09T03:08:07;102510.78;;;8.23;83.79
72285;BME280;60220;53.552;10.092;2023-04-09T03:10:35;102511.75;;;8.63;82.45
72285;BME280;60220;53.552;10.092;2023-04-09T03:13:02;102503.78;;;8.22;82.45
72285;BME280;60220;53.552;10.092;2023-04-09T03:15:31;102513.13;;;8.11;83.17
72285;BME280;60220;53.552;10.092;2023-04-09T03:17:59;102512.63;;;8.28;83.59
72285;BME280;60220;53.552;10.092;2023-04-09T03:20:26;102504.44;;;8.48;83.06
72285;BME280;60220;53.552;10.092;2023-04-09T03:22:53;102508.94;;;8.19;83.89
72285;BME280;60220;53.552;10.092;2023-04-09T03:25:19;102503.16;;;7.98;83.01
72285;BME280;60220;53.552;10.092;2023-04-09T03:27:48;102505.28;;;8.13;83.95
72285;BME280;60220;53.552;10.092;2023-04-09T03:30:14;102505.75;;;7.97;84.02
72285;BME280;60220;53.552;10.092;2023-04-09T03:32:41;102498.69;;;8.29;82.57
72285;BME280;60220;53.552;10.092;2023-04-09T03:35:08;102499.63;;;7.96;83.79
72285;BME280;60220;53.552;10.092;2023-04-09T03:37:34;102499.78;;;8.02;84.03
72285;BME280;60220;53.552;10.092;2023-04-09T03:40:01;102498.59;;;7.90;84.54
72285;BME280;60220;53.552;10.092;2023-04-09T03:42:31;102500.38;;;7.92;84.83
72285;BME280;60220;53.552;10.092;2023-04-09T03:45:04;102500.19;;;7.52;85.73
72285;BME280;60220;53.552;10.092;2023-04-09T03:47:32;102509.22;;;7.96;85.09
72285;BME280;60220;53.552;10.092;2023-04-09T03:49:58;102498.56;;;8.58;84.15
72285;BME280;60220;53.552;10.092;2023-04-09T03:52:25;102503.03;;;8.28;82.72
72285;BME280;60220;53.552;10.092;2023-04-09T03:54:52;102499.09;;;8.09;83.48
72285;BME280;60220;53.552;10.092;2023-04-09T03:57:18;102505.75;;;8.30;83.22
72285;BME280;60220;53.552;10.092;2023-04-09T03:59:45;102502.66;;;8.47;82.05
72285;BME280;60220;53.552;10.092;2023-04-09T04:02:15;102504.28;;;8.41;83.46
72285;BME280;60220;53.552;10.092;2023-04-09T04:04:45;102502.72;;;8.49;82.89
72285;BME280;60220;53.552;10.092;2023-04-09T04:07:14;102507.91;;;8.47;81.72
72285;BME280;60220;53.552;10.092;2023-04-09T04:09:40;102503.91;;;8.63;80.88
72285;BME280;60220;53.552;10.092;2023-04-09T04:12:08;102512.06;;;8.39;81.63
72285;BME280;60220;53.552;10.092;2023-04-09T04:14:37;102514.75;;;8.41;82.98
72285;BME280;60220;53.552;10.092;2023-04-09T04:17:03;102510.41;;;8.43;82.36
72285;BME280;60220;53.552;10.092;2023-04-09T04:19:31;102512.44;;;8.54;81.79
72285;BME280;60220;53.552;10.092;2023-04-09T04:21:58;102513.38;;;8.58;81.99
72285;BME280;60220;53.552;10.092;2023-04-09T04:24:27;102515.00;;;7.84;83.08
72285;BME280;60220;53.552;10.092;2023-04-09T04:26:54;102514.72;;;8.06;83.64
72285;BME280;60220;53.552;10.092;2023-04-09T04:29:20;102522.38;;;8.32;83.07
72285;BME280;60220;53.552;10.092;2023-04-09T04:31:47;102525.00;;;8.32;82.66
72285;BME280;60220;53.552;10.092;2023-04-09T04:34:13;102516.66;;;7.82;84.05
72285;BME280;60220;53.552;10.092;2023-04-09T04:36:42;102517.00;;;7.94;83.69
72285;BME280;60220;53.552;10.092;2023-04-09T04:39:08;102522.84;;;8.18;82.84
72285;BME280;60220;53.552;10.092;2023-04-09T04:41:35;102514.66;;;8.38;82.59
72285;BME280;60220;53.552;10.092;2023-04-09T04:44:02;102512.00;;;8.03;83.20
72285;BME280;60220;53.552;10.092;2023-04-09T04:46:28;102512.03;;;8.38;82.12
72285;BME280;60220;53.552;10.092;2023-04-09T04:48:55;102515.41;;;8.70;82.32
72285;BME280;60220;53.552;10.092;2023-04-09T04:51:22;102514.31;;;8.60;82.19
72285;BME280;60220;53.552;10.092;2023-04-09T04:53:50;102511.16;;;9.14;80.66
72285;BME280;60220;53.552;10.092;2023-04-09T04:56:18;102506.00;;;8.78;78.71
72285;BME280;60220;53.552;10.092;2023-04-09T04:58:47;102512.75;;;9.05;78.93
72285;BME280;60220;53.552;10.092;2023-04-09T05:01:14;102516.72;;;8.51;80.90
72285;BME280;60220;53.552;10.092;2023-04-09T05:03:43;102515.13;;;8.23;81.36
72285;BME280;60220;53.552;10.092;2023-04-09T05:06:10;102519.63;;;8.29;83.18
72285;BME280;60220;53.552;10.092;2023-04-09T05:08:36;102517.50;;;8.84;80.87
72285;BME280;60220;53.552;10.092;2023-04-09T05:11:10;102516.84;;;8.57;81.14
72285;BME280;60220;53.552;10.092;2023-04-09T05:13:37;102519.72;;;8.68;80.54
72285;BME280;60220;53.552;10.092;2023-04-09T05:16:04;102520.34;;;8.57;80.35
72285;BME280;60220;53.552;10.092;2023-04-09T05:18:30;102522.34;;;8.68;80.40
72285;BME280;60220;53.552;10.092;2023-04-09T05:20:57;102523.22;;;9.05;79.68
72285;BME280;60220;53.552;10.092;2023-04-09T05:23:24;102528.00;;;8.48;79.99
72285;BME280;60220;53.552;10.092;2023-04-09T05:25:53;102523.50;;;8.43;81.97
72285;BME280;60220;53.552;10.092;2023-04-09T05:28:21;102523.22;;;8.31;82.06
72285;BME280;60220;53.552;10.092;2023-04-09T05:30:47;102522.09;;;9.35;80.58
72285;BME280;60220;53.552;10.092;2023-04-09T05:33:14;102519.00;;;9.14;78.92
72285;BME280;60220;53.552;10.092;2023-04-09T05:35:41;102518.63;;;9.37;77.28
72285;BME280;60220;53.552;10.092;2023-04-09T05:38:08;102522.81;;;9.71;77.31
72285;BME280;60220;53.552;10.092;2023-04-09T05:40:35;102522.38;;;9.50;77.60
72285;BME280;60220;53.552;10.092;2023-04-09T05:43:01;102530.09;;;9.02;79.18
72285;BME280;60220;53.552;10.092;2023-04-09T05:45:29;102531.44;;;8.47;79.18
72285;BME280;60220;53.552;10.092;2023-04-09T05:47:56;102540.09;;;8.10;81.03
72285;BME280;60220;53.552;10.092;2023-04-09T05:50:23;102535.97;;;7.87;82.76
72285;BME280;60220;53.552;10.092;2023-04-09T05:52:49;102535.53;;;8.35;83.29
72285;BME280;60220;53.552;10.092;2023-04-09T05:55:16;102539.94;;;8.73;80.79
72285;BME280;60220;53.552;10.092;2023-04-09T05:57:42;102537.88;;;8.60;81.26
72285;BME280;60220;53.552;10.092;2023-04-09T06:00:12;102534.44;;;8.28;81.51
72285;BME280;60220;53.552;10.092;2023-04-09T06:02:41;102540.28;;;8.18;82.54
72285;BME280;60220;53.552;10.092;2023-04-09T06:05:08;102538.03;;;8.30;82.85
72285;BME280;60220;53.552;10.092;2023-04-09T06:07:35;102546.00;;;8.03;82.26
72285;BME280;60220;53.552;10.092;2023-04-09T06:10:01;102538.31;;;8.42;82.23
72285;BME280;60220;53.552;10.092;2023-04-09T06:12:28;102535.94;;;8.53;82.20
72285;BME280;60220;53.552;10.092;2023-04-09T06:14:55;102540.19;;;8.84;80.24
72285;BME280;60220;53.552;10.092;2023-04-09T06:17:22;102538.34;;;8.44;80.69
72285;BME280;60220;53.552;10.092;2023-04-09T06:19:50;102541.84;;;8.10;81.82
72285;BME280;60220;53.552;10.092;2023-04-09T06:22:16;102549.16;;;8.57;81.54
72285;BME280;60220;53.552;10.092;2023-04-09T06:24:43;102544.63;;;8.50;80.80
72285;BME280;60220;53.552;10.092;2023-04-09T06:27:10;102546.31;;;8.84;80.53
72285;BME280;60220;53.552;10.092;2023-04-09T06:29:36;102551.97;;;8.65;80.02
72285;BME280;60220;53.552;10.092;2023-04-09T06:32:04;102547.03;;;8.41;81.30
72285;BME280;60220;53.552;10.092;2023-04-09T06:34:31;102554.63;;;8.68;81.83
72285;BME280;60220;53.552;10.092;2023-04-09T06:37:01;102552.53;;;8.89;80.54
72285;BME280;60220;53.552;10.092;2023-04-09T06:39:28;102551.91;;;8.29;81.28
72285;BME280;60220;53.552;10.092;2023-04-09T06:41:55;102558.81;;;8.60;81.13
72285;BME280;60220;53.552;10.092;2023-04-09T06:44:21;102549.53;;;8.37;80.59
72285;BME280;60220;53.552;10.092;2023-04-09T06:46:49;102553.66;;;9.02;80.74
72285;BME280;60220;53.552;10.092;2023-04-09T06:49:16;102555.78;;;9.18;79.89
72285;BME280;60220;53.552;10.092;2023-04-09T06:51:42;102552.38;;;8.83;78.75
72285;BME280;60220;53.552;10.092;2023-04-09T06:54:10;102553.91;;;9.13;78.86
72285;BME280;60220;53.552;10.092;2023-04-09T06:56:37;102556.66;;;9.19;77.68
72285;BME280;60220;53.552;10.092;2023-04-09T06:59:06;102554.75;;;9.50;77.53
72285;BME280;60220;53.552;10.092;2023-04-09T07:01:33;102556.72;;;9.64;75.97
72285;BME280;60220;53.552;10.092;2023-04-09T07:04:02;102558.69;;;9.30;77.18
72285;BME280;60220;53.552;10.092;2023-04-09T07:06:28;102554.91;;;9.18;78.26
72285;BME280;60220;53.552;10.092;2023-04-09T07:08:57;102555.00;;;8.47;79.42
72285;BME280;60220;53.552;10.092;2023-04-09T07:11:26;102556.94;;;8.92;79.89
72285;BME280;60220;53.552;10.092;2023-04-09T07:13:53;102556.25;;;8.61;81.14
72285;BME280;60220;53.552;10.092;2023-04-09T07:16:21;102555.78;;;8.79;80.90
72285;BME280;60220;53.552;10.092;2023-04-09T07:18:47;102555.81;;;9.20;79.09
72285;BME280;60220;53.552;10.092;2023-04-09T07:21:15;102556.88;;;8.89;79.18
72285;BME280;60220;53.552;10.092;2023-04-09T07:23:41;102558.09;;;9.45;79.12
72285;BME280;60220;53.552;10.092;2023-04-09T07:26:09;102561.66;;;9.06;78.36
72285;BME280;60220;53.552;10.092;2023-04-09T07:28:37;102553.75;;;9.47;78.17
72285;BME280;60220;53.552;10.092;2023-04-09T07:31:03;102560.22;;;9.21;79.31
72285;BME280;60220;53.552;10.092;2023-04-09T07:33:30;102553.25;;;9.23;78.22
72285;BME280;60220;53.552;10.092;2023-04-09T07:35:57;102554.69;;;9.49;76.97
72285;BME280;60220;53.552;10.092;2023-04-09T07:38:28;102560.75;;;9.46;77.97
72285;BME280;60220;53.552;10.092;2023-04-09T07:40:57;102557.13;;;8.99;77.39
72285;BME280;60220;53.552;10.092;2023-04-09T07:43:23;102568.59;;;9.04;78.75
72285;BME280;60220;53.552;10.092;2023-04-09T07:45:51;102555.97;;;9.69;77.09
72285;BME280;60220;53.552;10.092;2023-04-09T07:48:20;102554.63;;;9.89;76.08
72285;BME280;60220;53.552;10.092;2023-04-09T07:50:47;102557.13;;;10.30;74.76
72285;BME280;60220;53.552;10.092;2023-04-09T07:53:14;102557.47;;;10.03;75.37
72285;BME280;60220;53.552;10.092;2023-04-09T07:55:40;102567.16;;;10.06;75.89
72285;BME280;60220;53.552;10.092;2023-04-09T07:58:09;102564.63;;;9.65;75.81
72285;BME280;60220;53.552;10.092;2023-04-09T08:00:36;102565.31;;;9.15;76.78
72285;BME280;60220;53.552;10.092;2023-04-09T08:03:04;102571.28;;;9.48;78.46
72285;BME280;60220;53.552;10.092;2023-04-09T08:05:31;102553.00;;;9.51;77.04
72285;BME280;60220;53.552;10.092;2023-04-09T08:07:57;102555.41;;;9.42;76.56
72285;BME280;60220;53.552;10.092;2023-04-09T08:10:24;102558.34;;;9.57;77.34
72285;BME280;60220;53.552;10.092;2023-04-09T08:12:51;102557.13;;;9.40;77.42
72285;BME280;60220;53.552;10.092;2023-04-09T08:15:20;102565.66;;;9.30;77.93
72285;BME280;60220;53.552;10.092;2023-04-09T08:17:46;102556.91;;;9.71;76.52
72285;BME280;60220;53.552;10.092;2023-04-09T08:20:14;102559.75;;;9.83;75.68
72285;BME280;60220;53.552;10.092;2023-04-09T08:22:42;102557.16;;;9.86;75.02
72285;BME280;60220;53.552;10.092;2023-04-09T08:25:09;102558.41;;;10.05;73.98
72285;BME280;60220;53.552;10.092;2023-04-09T08:27:36;102553.44;;;10.19;72.85
72285;BME280;60220;53.552;10.092;2023-04-09T08:30:04;102560.78;;;10.41;73.03
72285;BME280;60220;53.552;10.092;2023-04-09T08:32:31;102555.75;;;10.53;71.89
72285;BME280;60220;53.552;10.092;2023-04-09T08:35:00;102556.56;;;10.00;72.76
72285;BME280;60220;53.552;10.092;2023-04-09T08:37:28;102557.88;;;10.23;71.42
72285;BME280;60220;53.552;10.092;2023-04-09T08:39:55;102553.59;;;10.28;71.75
72285;BME280;60220;53.552;10.092;2023-04-09T08:42:22;102559.78;;;10.87;71.53
72285;BME280;60220;53.552;10.092;2023-04-09T08:44:50;102555.91;;;10.62;70.51
72285;BME280;60220;53.552;10.092;2023-04-09T08:47:19;102562.06;;;10.64;71.13
72285;BME280;60220;53.552;10.092;2023-04-09T08:49:46;102554.09;;;10.09;71.95
72285;BME280;60220;53.552;10.092;2023-04-09T08:52:14;102553.28;;;10.13;72.20
72285;BME280;60220;53.552;10.092;2023-04-09T08:54:48;102553.16;;;10.56;71.21
72285;BME280;60220;53.552;10.092;2023-04-09T08:57:16;102557.94;;;10.82;69.94
72285;BME280;60220;53.552;10.092;2023-04-09T08:59:43;102561.41;;;10.26;70.77
72285;BME280;60220;53.552;10.092;2023-04-09T09:02:12;102552.88;;;9.45;73.07
72285;BME280;60220;53.552;10.092;2023-04-09T09:04:43;102557.28;;;9.92;73.35
72285;BME280;60220;53.552;10.092;2023-04-09T09:07:11;102554.47;;;9.82;72.04
72285;BME280;60220;53.552;10.092;2023-04-09T09:09:50;102554.38;;;9.77;72.81
72285;BME280;60220;53.552;10.092;2023-04-09T09:12:31;102566.19;;;9.56;73.48
72285;BME280;60220;53.552;10.092;2023-04-09T09:14:58;102560.31;;;9.27;74.55
72285;BME280;60220;53.552;10.092;2023-04-09T09:17:25;102564.34;;;9.51;75.90
72285;BME280;60220;53.552;10.092;2023-04-09T09:19:54;102558.41;;;10.07;72.47
72285;BME280;60220;53.552;10.092;2023-04-09T09:22:23;102553.81;;;9.93;71.39
72285;BME280;60220;53.552;10.092;2023-04-09T09:24:52;102554.03;;;9.59;72.49
72285;BME280;60220;53.552;10.092;2023-04-09T09:27:31;102561.34;;;9.75;72.67
72285;BME280;60220;53.552;10.092;2023-04-09T09:30:01;102554.84;;;9.57;72.48
72285;BME280;60220;53.552;10.092;2023-04-09T09:32:28;102560.72;;;9.45;72.94
72285;BME280;60220;53.552;10.092;2023-04-09T09:35:02;102556.78;;;9.65;72.55
72285;BME280;60220;53.552;10.092;2023-04-09T09:37:32;102565.44;;;10.08;71.28
72285;BME280;60220;53.552;10.092;2023-04-09T09:40:00;102560.91;;;9.54;72.76
72285;BME280;60220;53.552;10.092;2023-04-09T09:42:30;102556.19;;;9.36;73.94
72285;BME280;60220;53.552;10.092;2023-04-09T09:44:57;102557.72;;;9.69;73.44
72285;BME280;60220;53.552;10.092;2023-04-09T09:47:25;102560.47;;;9.33;74.23
72285;BME280;60220;53.552;10.092;2023-04-09T09:49:53;102551.03;;;9.84;71.88
72285;BME280;60220;53.552;10.092;2023-04-09T09:52:23;102558.41;;;10.56;70.11
72285;BME280;60220;53.552;10.092;2023-04-09T09:54:52;102558.72;;;10.76;69.91
72285;BME280;60220;53.552;10.092;2023-04-09T09:57:23;102558.00;;;10.85;70.09
72285;BME280;60220;53.552;10.092;2023-04-09T09:59:53;102557.91;;;10.24;69.99
72285;BME280;60220;53.552;10.092;2023-04-09T10:02:24;102549.28;;;9.85;70.02
72285;BME280;60220;53.552;10.092;2023-04-09T10:04:59;102553.84;;;9.50;72.27
72285;BME280;60220;53.552;10.092;2023-04-09T10:07:26;102546.88;;;10.45;71.05
72285;BME280;60220;53.552;10.092;2023-04-09T10:09:54;102549.78;;;10.63;69.50
72285;BME280;60220;53.552;10.092;2023-04-09T10:12:24;102547.47;;;10.29;69.60
72285;BME280;60220;53.552;10.092;2023-04-09T10:14:52;102547.63;;;10.94;67.94
72285;BME280;60220;53.552;10.092;2023-04-09T10:17:22;102542.59;;;11.09;67.26
72285;BME280;60220;53.552;10.092;2023-04-09T10:19:55;102545.47;;;10.67;67.59
72285;BME280;60220;53.552;10.092;2023-04-09T10:22:25;102532.94;;;10.00;69.42
72285;BME280;60220;53.552;10.092;2023-04-09T10:24:55;102533.63;;;10.95;67.41
72285;BME280;60220;53.552;10.092;2023-04-09T10:27:25;102535.31;;;10.91;67.80
72285;BME280;60220;53.552;10.092;2023-04-09T10:29:52;102533.56;;;10.92;67.76
72285;BME280;60220;53.552;10.092;2023-04-09T10:32:20;102541.09;;;10.66;67.95
72285;BME280;60220;53.552;10.092;2023-04-09T10:34:49;102532.88;;;10.46;68.30
72285;BME280;60220;53.552;10.092;2023-04-09T10:37:20;102531.00;;;10.36;68.16
72285;BME280;60220;53.552;10.092;2023-04-09T10:39:48;102532.66;;;10.31;68.66
72285;BME280;60220;53.552;10.092;2023-04-09T10:42:17;102538.50;;;10.16;69.31
72285;BME280;60220;53.552;10.092;2023-04-09T10:45:03;102533.00;;;11.12;66.08
72285;BME280;60220;53.552;10.092;2023-04-09T10:47:31;102534.53;;;10.95;66.80
72285;BME280;60220;53.552;10.092;2023-04-09T10:50:13;102525.63;;;11.53;65.64
72285;BME280;60220;53.552;10.092;2023-04-09T10:52:40;102529.81;;;12.15;63.21
72285;BME280;60220;53.552;10.092;2023-04-09T10:55:08;102527.03;;;11.27;65.73
72285;BME280;60220;53.552;10.092;2023-04-09T10:57:35;102523.13;;;11.65;63.83
72285;BME280;60220;53.552;10.092;2023-04-09T11:00:04;102517.72;;;11.53;64.13
72285;BME280;60220;53.552;10.092;2023-04-09T11:03:08;102524.97;;;11.73;61.83
72285;BME280;60220;53.552;10.092;2023-04-09T11:05:36;102520.84;;;11.22;63.16
72285;BME280;60220;53.552;10.092;2023-04-09T11:08:05;102514.34;;;11.66;62.99
72285;BME280;60220;53.552;10.092;2023-04-09T11:10:32;102525.06;;;11.79;62.22
72285;BME280;60220;53.552;10.092;2023-04-09T11:13:01;102516.50;;;12.01;62.03
72285;BME280;60220;53.552;10.092;2023-04-09T11:15:33;102509.81;;;11.50;63.83
72285;BME280;60220;53.552;10.092;2023-04-09T11:18:01;102517.41;;;12.06;62.41
72285;BME280;60220;53.552;10.092;2023-04-09T11:20:29;102504.19;;;11.20;64.54
72285;BME280;60220;53.552;10.092;2023-04-09T11:22:57;102503.44;;;11.32;65.19
72285;BME280;60220;53.552;10.092;2023-04-09T11:25:27;102500.69;;;11.22;65.96
72285;BME280;60220;53.552;10.092;2023-04-09T11:27:54;102499.69;;;11.87;64.12
72285;BME280;60220;53.552;10.092;2023-04-09T11:30:20;102499.91;;;12.08;62.70
72285;BME280;60220;53.552;10.092;2023-04-09T11:32:49;102498.31;;;12.28;61.16
72285;BME280;60220;53.552;10.092;2023-04-09T11:35:18;102498.47;;;12.49;61.34
72285;BME280;60220;53.552;10.092;2023-04-09T11:37:48;102496.41;;;13.71;58.71
72285;BME280;60220;53.552;10.092;2023-04-09T11:40:18;102496.47;;;13.94;57.13
72285;BME280;60220;53.552;10.092;2023-04-09T11:42:49;102495.56;;;13.96;56.45
72285;BME280;60220;53.552;10.092;2023-04-09T11:45:17;102496.34;;;13.38;56.85
72285;BME280;60220;53.552;10.092;2023-04-09T11:47:45;102491.09;;;13.53;57.91
72285;BME280;60220;53.552;10.092;2023-04-09T11:50:14;102495.47;;;13.43;57.84
72285;BME280;60220;53.552;10.092;2023-04-09T11:52:41;102496.41;;;13.65;57.81
72285;BME280;60220;53.552;10.092;2023-04-09T11:55:09;102491.00;;;13.25;57.35
72285;BME280;60220;53.552;10.092;2023-04-09T11:57:40;102491.13;;;13.62;57.22
72285;BME280;60220;53.552;10.092;2023-04-09T12:00:09;102483.06;;;13.16;57.85
72285;BME280;60220;53.552;10.092;2023-04-09T12:02:38;102486.72;;;13.58;57.07
72285;BME280;60220;53.552;10.092;2023-04-09T12:05:08;102487.63;;;13.63;56.89
72285;BME280;60220;53.552;10.092;2023-04-09T12:07:37;102487.63;;;13.67;56.19
72285;BME280;60220;53.552;10.092;2023-04-09T12:10:05;102476.22;;;13.79;55.72
72285;BME280;60220;53.552;10.092;2023-04-09T12:12:41;102478.81;;;13.58;57.09
72285;BME280;60220;53.552;10.092;2023-04-09T12:15:17;102479.72;;;14.30;55.87
72285;BME280;60220;53.552;10.092;2023-04-09T12:17:46;102470.81;;;13.27;57.22
72285;BME280;60220;53.552;10.092;2023-04-09T12:20:12;102474.03;;;12.69;57.47
72285;BME280;60220;53.552;10.092;2023-04-09T12:22:41;102461.91;;;13.10;58.09
72285;BME280;60220;53.552;10.092;2023-04-09T12:25:09;102470.84;;;13.43;56.20
72285;BME280;60220;53.552;10.092;2023-04-09T12:27:35;102460.94;;;12.87;57.16
72285;BME280;60220;53.552;10.092;2023-04-09T12:30:02;102457.50;;;13.11;55.47
72285;BME280;60220;53.552;10.092;2023-04-09T12:32:29;102464.16;;;12.40;57.29
72285;BME280;60220;53.552;10.092;2023-04-09T12:34:56;102455.41;;;12.43;58.20
72285;BME280;60220;53.552;10.092;2023-04-09T12:37:23;102453.28;;;13.51;56.76
72285;BME280;60220;53.552;10.092;2023-04-09T12:39:51;102456.84;;;13.95;54.03
72285;BME280;60220;53.552;10.092;2023-04-09T12:42:18;102442.69;;;14.84;52.05
72285;BME280;60220;53.552;10.092;2023-04-09T12:44:45;102447.09;;;14.79;51.72
72285;BME280;60220;53.552;10.092;2023-04-09T12:47:11;102443.66;;;14.16;54.39
72285;BME280;60220;53.552;10.092;2023-04-09T12:49:41;102449.84;;;14.09;55.01
72285;BME280;60220;53.552;10.092;2023-04-09T12:52:09;102446.31;;;14.07;54.16
72285;BME280;60220;53.552;10.092;2023-04-09T12:54:38;102454.22;;;13.88;54.82